LEBB/BIO METAR and TAF weather

Enter ICAO airport designator
Station Type Date Time Source
LEBB METAR 2020/02/19 14:30 UTC NOAA

LEBB 191430Z VRB03KT CAVOK 15/04 Q1030 NOSIG


Station Type Date Time Source
LEBB Decoded METAR 2020/02/19 14:30 UTC NOAA

Bilbao / Sondica, Spain (LEBB) 43-18N 002-56W 37M
Feb 19, 2020 - 09:30 AM EST / 2020.02.19 1430 UTC
Wind: Variable at 3 MPH (3 KT):0
Visibility: greater than 7 mile(s):0
Temperature: 59 F (15 C)
Dew Point: 39 F (4 C)
Relative Humidity: 47%
Pressure (altimeter): 30.42 in. Hg (1030 hPa)
ob: LEBB 191430Z VRB03KT CAVOK 15/04 Q1030 NOSIG
cycle: 14

Station Type Date Time Source
LEBB TAF 2020/02/19 12:27 UTC NOAA

TAF LEBB 191100Z 1912/2012 06008KT 9999 FEW040 TX15/1914Z TN03/2006Z PROB30
TEMPO 1915/1918 30010KT

Example: see airport list